Terminal Aerodrome Forecast
Issued by NWS Buffalo, NY

Home | Current Version | Previous Version | Text Only | Print | Product List | Glossary On
Versions: 1 2 3 4 5 6 7 8 9 10 11 12 13 14 15 16 17 18 19 20 21 22 23 24 25 26 27 28 29 30 31 32 33 34 35 36 37 38 39 40 41 42 43 44 45 46 47 48 49 50
000
FTUS41 KBUF 181855 AAA
TAFROC
TAF AMD
KROC 181855Z 1819/1918 29010KT P6SM FEW025 OVC035
     FM182100 28011KT P6SM FEW025 OVC035
      TEMPO 1821/1824 5SM -SN BKN025 OVC035
     FM190000 30007KT P6SM BKN025 OVC035
      TEMPO 1902/1903 4SM -SHSN OVC015
     FM190300 34007KT P6SM OVC020
     FM191600 07010KT 2SM -SN OVC015=

USA.gov is the U.S. government's official web portal to all federal, state and local government web resources and services.